sensor_id;sensor_type;location;lat;lon;timestamp;temperature;humidity
3940;DHT22;1984;48.312;9.244;2024-02-14T00:01:25;0.70;99.90
3940;DHT22;1984;48.312;9.244;2024-02-14T00:03:51;0.70;99.90
3940;DHT22;1984;48.312;9.244;2024-02-14T00:06:17;0.70;99.90
3940;DHT22;1984;48.312;9.244;2024-02-14T00:08:44;0.60;99.90
3940;DHT22;1984;48.312;9.244;2024-02-14T00:11:09;0.70;99.90
3940;DHT22;1984;48.312;9.244;2024-02-14T00:13:35;0.70;99.90
3940;DHT22;1984;48.312;9.244;2024-02-14T00:16:01;0.70;99.90
3940;DHT22;1984;48.312;9.244;2024-02-14T00:18:28;0.70;99.90
3940;DHT22;1984;48.312;9.244;2024-02-14T00:20:54;0.70;99.90
3940;DHT22;1984;48.312;9.244;2024-02-14T00:23:20;0.70;99.90
3940;DHT22;1984;48.312;9.244;2024-02-14T00:25:45;0.70;99.90
3940;DHT22;1984;48.312;9.244;2024-02-14T00:28:11;0.70;99.90
3940;DHT22;1984;48.312;9.244;2024-02-14T00:30:36;0.70;99.90
3940;DHT22;1984;48.312;9.244;2024-02-14T00:33:02;0.70;99.90
3940;DHT22;1984;48.312;9.244;2024-02-14T00:35:27;0.70;99.90
3940;DHT22;1984;48.312;9.244;2024-02-14T00:37:53;0.60;99.90
3940;DHT22;1984;48.312;9.244;2024-02-14T00:40:18;0.60;99.90
3940;DHT22;1984;48.312;9.244;2024-02-14T00:42:44;0.60;99.90
3940;DHT22;1984;48.312;9.244;2024-02-14T00:45:09;0.60;99.90
3940;DHT22;1984;48.312;9.244;2024-02-14T00:47:35;0.60;99.90
3940;DHT22;1984;48.312;9.244;2024-02-14T00:50:02;0.60;99.90
3940;DHT22;1984;48.312;9.244;2024-02-14T00:52:28;0.60;99.90
3940;DHT22;1984;48.312;9.244;2024-02-14T00:54:54;0.70;99.90
3940;DHT22;1984;48.312;9.244;2024-02-14T00:57:20;0.70;99.90
3940;DHT22;1984;48.312;9.244;2024-02-14T00:59:45;0.70;99.90
3940;DHT22;1984;48.312;9.244;2024-02-14T01:02:11;0.80;99.90
3940;DHT22;1984;48.312;9.244;2024-02-14T01:04:37;0.80;99.90
3940;DHT22;1984;48.312;9.244;2024-02-14T01:07:03;0.90;99.90
3940;DHT22;1984;48.312;9.244;2024-02-14T01:09:29;0.90;99.90
3940;DHT22;1984;48.312;9.244;2024-02-14T01:11:54;0.90;99.90
3940;DHT22;1984;48.312;9.244;2024-02-14T01:14:20;1.00;99.90
3940;DHT22;1984;48.312;9.244;2024-02-14T01:16:47;1.00;99.90
3940;DHT22;1984;48.312;9.244;2024-02-14T01:19:13;1.10;99.90
3940;DHT22;1984;48.312;9.244;2024-02-14T01:21:39;1.20;99.90
3940;DHT22;1984;48.312;9.244;2024-02-14T01:24:05;1.20;99.90
3940;DHT22;1984;48.312;9.244;2024-02-14T01:26:31;1.20;99.90
3940;DHT22;1984;48.312;9.244;2024-02-14T01:28:57;1.30;99.90
3940;DHT22;1984;48.312;9.244;2024-02-14T01:31:23;1.30;99.90
3940;DHT22;1984;48.312;9.244;2024-02-14T01:33:48;1.40;99.90
3940;DHT22;1984;48.312;9.244;2024-02-14T01:36:14;1.40;99.90
3940;DHT22;1984;48.312;9.244;2024-02-14T01:38:39;1.40;99.90
3940;DHT22;1984;48.312;9.244;2024-02-14T01:41:05;1.40;99.90
3940;DHT22;1984;48.312;9.244;2024-02-14T01:43:31;1.40;99.90
3940;DHT22;1984;48.312;9.244;2024-02-14T01:46:06;1.40;99.90
3940;DHT22;1984;48.312;9.244;2024-02-14T01:48:31;1.50;99.90
3940;DHT22;1984;48.312;9.244;2024-02-14T01:50:59;1.50;99.90
3940;DHT22;1984;48.312;9.244;2024-02-14T01:53:25;1.60;99.90
3940;DHT22;1984;48.312;9.244;2024-02-14T01:55:51;1.60;99.90
3940;DHT22;1984;48.312;9.244;2024-02-14T01:58:18;1.50;99.90
3940;DHT22;1984;48.312;9.244;2024-02-14T02:00:43;1.50;99.90
3940;DHT22;1984;48.312;9.244;2024-02-14T02:03:10;1.50;99.90
3940;DHT22;1984;48.312;9.244;2024-02-14T02:05:36;1.60;99.90
3940;DHT22;1984;48.312;9.244;2024-02-14T02:08:01;1.60;99.90
3940;DHT22;1984;48.312;9.244;2024-02-14T02:10:27;1.60;99.90
3940;DHT22;1984;48.312;9.244;2024-02-14T02:13:00;1.70;99.90
3940;DHT22;1984;48.312;9.244;2024-02-14T02:15:26;1.70;99.90
3940;DHT22;1984;48.312;9.244;2024-02-14T02:17:54;1.70;99.90
3940;DHT22;1984;48.312;9.244;2024-02-14T02:20:19;1.60;99.90
3940;DHT22;1984;48.312;9.244;2024-02-14T02:22:48;1.70;99.90
3940;DHT22;1984;48.312;9.244;2024-02-14T02:25:14;1.60;99.90
3940;DHT22;1984;48.312;9.244;2024-02-14T02:27:40;1.70;99.90
3940;DHT22;1984;48.312;9.244;2024-02-14T02:30:06;1.70;99.90
3940;DHT22;1984;48.312;9.244;2024-02-14T02:32:32;1.80;99.90
3940;DHT22;1984;48.312;9.244;2024-02-14T02:34:58;1.90;99.90
3940;DHT22;1984;48.312;9.244;2024-02-14T02:37:25;2.00;99.90
3940;DHT22;1984;48.312;9.244;2024-02-14T02:39:51;2.00;99.90
3940;DHT22;1984;48.312;9.244;2024-02-14T02:42:17;2.10;99.90
3940;DHT22;1984;48.312;9.244;2024-02-14T02:44:46;2.20;99.90
3940;DHT22;1984;48.312;9.244;2024-02-14T02:47:12;2.30;99.90
3940;DHT22;1984;48.312;9.244;2024-02-14T02:49:38;2.40;99.90
3940;DHT22;1984;48.312;9.244;2024-02-14T02:52:03;2.40;99.90
3940;DHT22;1984;48.312;9.244;2024-02-14T02:54:29;2.40;99.90
3940;DHT22;1984;48.312;9.244;2024-02-14T02:56:54;2.30;99.90
3940;DHT22;1984;48.312;9.244;2024-02-14T02:59:20;2.40;99.90
3940;DHT22;1984;48.312;9.244;2024-02-14T03:01:47;2.40;99.90
3940;DHT22;1984;48.312;9.244;2024-02-14T03:04:15;2.50;99.90
3940;DHT22;1984;48.312;9.244;2024-02-14T03:06:40;2.50;99.90
3940;DHT22;1984;48.312;9.244;2024-02-14T03:09:08;2.50;99.90
3940;DHT22;1984;48.312;9.244;2024-02-14T03:11:34;2.60;99.90
3940;DHT22;1984;48.312;9.244;2024-02-14T03:14:01;2.60;99.90
3940;DHT22;1984;48.312;9.244;2024-02-14T03:16:27;2.60;99.90
3940;DHT22;1984;48.312;9.244;2024-02-14T03:18:52;2.70;99.90
3940;DHT22;1984;48.312;9.244;2024-02-14T03:21:19;2.80;99.90
3940;DHT22;1984;48.312;9.244;2024-02-14T03:23:45;2.80;99.90
3940;DHT22;1984;48.312;9.244;2024-02-14T03:26:11;2.70;99.90
3940;DHT22;1984;48.312;9.244;2024-02-14T03:28:36;2.70;99.90
3940;DHT22;1984;48.312;9.244;2024-02-14T03:31:02;2.70;99.90
3940;DHT22;1984;48.312;9.244;2024-02-14T03:33:27;2.70;99.90
3940;DHT22;1984;48.312;9.244;2024-02-14T03:35:54;2.70;99.90
3940;DHT22;1984;48.312;9.244;2024-02-14T03:38:27;2.80;99.90
3940;DHT22;1984;48.312;9.244;2024-02-14T03:40:53;2.80;99.90
3940;DHT22;1984;48.312;9.244;2024-02-14T03:43:18;2.80;99.90
3940;DHT22;1984;48.312;9.244;2024-02-14T03:45:44;2.80;99.90
3940;DHT22;1984;48.312;9.244;2024-02-14T03:48:10;2.80;99.90
3940;DHT22;1984;48.312;9.244;2024-02-14T03:50:38;2.80;99.90
3940;DHT22;1984;48.312;9.244;2024-02-14T03:53:04;2.80;99.90
3940;DHT22;1984;48.312;9.244;2024-02-14T03:55:29;2.80;99.90
3940;DHT22;1984;48.312;9.244;2024-02-14T03:57:56;2.90;99.90
3940;DHT22;1984;48.312;9.244;2024-02-14T04:00:21;2.90;99.90
3940;DHT22;1984;48.312;9.244;2024-02-14T04:02:47;2.90;99.90
3940;DHT22;1984;48.312;9.244;2024-02-14T04:05:14;2.90;99.90
3940;DHT22;1984;48.312;9.244;2024-02-14T04:07:40;2.90;99.90
3940;DHT22;1984;48.312;9.244;2024-02-14T04:10:06;2.90;99.90
3940;DHT22;1984;48.312;9.244;2024-02-14T04:12:32;2.90;99.90
3940;DHT22;1984;48.312;9.244;2024-02-14T04:14:57;3.00;99.90
3940;DHT22;1984;48.312;9.244;2024-02-14T04:17:23;3.00;99.90
3940;DHT22;1984;48.312;9.244;2024-02-14T04:19:50;3.00;99.90
3940;DHT22;1984;48.312;9.244;2024-02-14T04:22:15;3.00;99.90
3940;DHT22;1984;48.312;9.244;2024-02-14T04:24:41;3.00;99.90
3940;DHT22;1984;48.312;9.244;2024-02-14T04:27:06;3.10;99.90
3940;DHT22;1984;48.312;9.244;2024-02-14T04:29:32;3.10;99.90
3940;DHT22;1984;48.312;9.244;2024-02-14T04:31:59;3.10;99.90
3940;DHT22;1984;48.312;9.244;2024-02-14T04:34:25;3.20;99.90
3940;DHT22;1984;48.312;9.244;2024-02-14T04:36:50;3.20;99.90
3940;DHT22;1984;48.312;9.244;2024-02-14T04:39:17;3.20;99.90
3940;DHT22;1984;48.312;9.244;2024-02-14T04:41:42;3.10;99.90
3940;DHT22;1984;48.312;9.244;2024-02-14T04:44:08;3.10;99.90
3940;DHT22;1984;48.312;9.244;2024-02-14T04:46:34;3.20;99.90
3940;DHT22;1984;48.312;9.244;2024-02-14T04:49:09;3.20;99.90
3940;DHT22;1984;48.312;9.244;2024-02-14T04:51:35;3.20;99.90
3940;DHT22;1984;48.312;9.244;2024-02-14T04:54:00;3.20;99.90
3940;DHT22;1984;48.312;9.244;2024-02-14T04:56:26;3.30;99.90
3940;DHT22;1984;48.312;9.244;2024-02-14T04:58:53;3.30;99.90
3940;DHT22;1984;48.312;9.244;2024-02-14T05:01:19;3.30;99.90
3940;DHT22;1984;48.312;9.244;2024-02-14T05:03:44;3.30;99.90
3940;DHT22;1984;48.312;9.244;2024-02-14T05:06:10;3.30;99.90
3940;DHT22;1984;48.312;9.244;2024-02-14T05:08:35;3.30;99.90
3940;DHT22;1984;48.312;9.244;2024-02-14T05:11:01;3.30;99.90
3940;DHT22;1984;48.312;9.244;2024-02-14T05:13:26;3.20;99.90
3940;DHT22;1984;48.312;9.244;2024-02-14T05:15:52;3.20;99.90
3940;DHT22;1984;48.312;9.244;2024-02-14T05:18:17;3.20;99.90
3940;DHT22;1984;48.312;9.244;2024-02-14T05:20:43;3.20;99.90
3940;DHT22;1984;48.312;9.244;2024-02-14T05:23:08;3.10;99.90
3940;DHT22;1984;48.312;9.244;2024-02-14T05:25:36;3.10;99.90
3940;DHT22;1984;48.312;9.244;2024-02-14T05:28:01;3.10;99.90
3940;DHT22;1984;48.312;9.244;2024-02-14T05:30:27;3.00;99.90
3940;DHT22;1984;48.312;9.244;2024-02-14T05:32:52;3.10;99.90
3940;DHT22;1984;48.312;9.244;2024-02-14T05:35:18;3.10;99.90
3940;DHT22;1984;48.312;9.244;2024-02-14T05:37:45;3.10;99.90
3940;DHT22;1984;48.312;9.244;2024-02-14T05:40:14;3.00;99.90
3940;DHT22;1984;48.312;9.244;2024-02-14T05:42:40;3.00;99.90
3940;DHT22;1984;48.312;9.244;2024-02-14T05:45:06;3.00;99.90
3940;DHT22;1984;48.312;9.244;2024-02-14T05:47:35;3.10;99.90
3940;DHT22;1984;48.312;9.244;2024-02-14T05:50:00;3.10;99.90
3940;DHT22;1984;48.312;9.244;2024-02-14T05:52:26;3.20;99.90
3940;DHT22;1984;48.312;9.244;2024-02-14T05:54:51;3.20;99.90
3940;DHT22;1984;48.312;9.244;2024-02-14T05:57:17;3.20;99.90
3940;DHT22;1984;48.312;9.244;2024-02-14T05:59:42;3.20;99.90
3940;DHT22;1984;48.312;9.244;2024-02-14T06:02:08;3.30;99.90
3940;DHT22;1984;48.312;9.244;2024-02-14T06:04:35;3.30;99.90
3940;DHT22;1984;48.312;9.244;2024-02-14T06:07:01;3.30;99.90
3940;DHT22;1984;48.312;9.244;2024-02-14T06:09:28;3.40;99.90
3940;DHT22;1984;48.312;9.244;2024-02-14T06:11:53;3.40;99.90
3940;DHT22;1984;48.312;9.244;2024-02-14T06:14:19;3.40;99.90
3940;DHT22;1984;48.312;9.244;2024-02-14T06:16:44;3.40;99.90
3940;DHT22;1984;48.312;9.244;2024-02-14T06:19:10;3.40;99.90
3940;DHT22;1984;48.312;9.244;2024-02-14T06:21:36;3.40;99.90
3940;DHT22;1984;48.312;9.244;2024-02-14T06:24:02;3.40;99.90
3940;DHT22;1984;48.312;9.244;2024-02-14T06:26:31;3.40;99.90
3940;DHT22;1984;48.312;9.244;2024-02-14T06:28:58;3.40;99.90
3940;DHT22;1984;48.312;9.244;2024-02-14T06:31:24;3.40;99.90
3940;DHT22;1984;48.312;9.244;2024-02-14T06:33:50;3.40;99.90
3940;DHT22;1984;48.312;9.244;2024-02-14T06:36:15;3.40;99.90
3940;DHT22;1984;48.312;9.244;2024-02-14T06:38:41;3.40;99.90
3940;DHT22;1984;48.312;9.244;2024-02-14T06:41:06;3.50;99.90
3940;DHT22;1984;48.312;9.244;2024-02-14T06:43:32;3.40;99.90
3940;DHT22;1984;48.312;9.244;2024-02-14T06:45:58;3.50;99.90
3940;DHT22;1984;48.312;9.244;2024-02-14T06:48:23;3.50;99.90
3940;DHT22;1984;48.312;9.244;2024-02-14T06:50:52;3.50;99.90
3940;DHT22;1984;48.312;9.244;2024-02-14T06:53:18;3.60;99.90
3940;DHT22;1984;48.312;9.244;2024-02-14T06:55:43;3.60;99.90
3940;DHT22;1984;48.312;9.244;2024-02-14T06:58:09;3.60;99.90
3940;DHT22;1984;48.312;9.244;2024-02-14T07:00:34;3.70;99.90
3940;DHT22;1984;48.312;9.244;2024-02-14T07:03:00;3.70;99.90
3940;DHT22;1984;48.312;9.244;2024-02-14T07:05:26;3.70;99.90
3940;DHT22;1984;48.312;9.244;2024-02-14T07:07:53;3.70;99.90
3940;DHT22;1984;48.312;9.244;2024-02-14T07:10:18;3.70;99.90
3940;DHT22;1984;48.312;9.244;2024-02-14T07:12:44;3.80;99.90
3940;DHT22;1984;48.312;9.244;2024-02-14T07:15:09;3.80;99.90
3940;DHT22;1984;48.312;9.244;2024-02-14T07:17:35;3.80;99.90
3940;DHT22;1984;48.312;9.244;2024-02-14T07:20:01;3.90;99.90
3940;DHT22;1984;48.312;9.244;2024-02-14T07:22:27;3.90;99.90
3940;DHT22;1984;48.312;9.244;2024-02-14T07:24:53;4.00;99.90
3940;DHT22;1984;48.312;9.244;2024-02-14T07:27:19;4.10;99.90
3940;DHT22;1984;48.312;9.244;2024-02-14T07:29:46;4.20;99.90
3940;DHT22;1984;48.312;9.244;2024-02-14T07:32:11;4.40;99.90
3940;DHT22;1984;48.312;9.244;2024-02-14T07:34:40;4.40;99.90
3940;DHT22;1984;48.312;9.244;2024-02-14T07:37:06;4.50;99.90
3940;DHT22;1984;48.312;9.244;2024-02-14T07:39:32;4.50;99.90
3940;DHT22;1984;48.312;9.244;2024-02-14T07:42:00;4.60;99.90
3940;DHT22;1984;48.312;9.244;2024-02-14T07:44:26;4.70;99.90
3940;DHT22;1984;48.312;9.244;2024-02-14T07:46:51;4.70;99.90
3940;DHT22;1984;48.312;9.244;2024-02-14T07:49:18;4.80;99.90
3940;DHT22;1984;48.312;9.244;2024-02-14T07:51:44;5.00;99.90
3940;DHT22;1984;48.312;9.244;2024-02-14T07:54:10;5.10;99.90
3940;DHT22;1984;48.312;9.244;2024-02-14T07:56:35;5.00;99.90
3940;DHT22;1984;48.312;9.244;2024-02-14T07:59:01;5.00;99.90
3940;DHT22;1984;48.312;9.244;2024-02-14T08:01:26;5.20;99.90
3940;DHT22;1984;48.312;9.244;2024-02-14T08:03:52;5.30;99.90
3940;DHT22;1984;48.312;9.244;2024-02-14T08:06:17;5.50;99.90
3940;DHT22;1984;48.312;9.244;2024-02-14T08:08:43;5.90;99.90
3940;DHT22;1984;48.312;9.244;2024-02-14T08:11:14;7.00;99.90
3940;DHT22;1984;48.312;9.244;2024-02-14T08:13:39;7.70;99.90
3940;DHT22;1984;48.312;9.244;2024-02-14T08:16:06;9.20;99.90
3940;DHT22;1984;48.312;9.244;2024-02-14T08:18:32;10.90;99.90
3940;DHT22;1984;48.312;9.244;2024-02-14T08:20:57;12.20;99.90
3940;DHT22;1984;48.312;9.244;2024-02-14T08:23:23;13.00;99.90
3940;DHT22;1984;48.312;9.244;2024-02-14T08:25:49;13.00;99.90
3940;DHT22;1984;48.312;9.244;2024-02-14T08:28:14;12.60;99.90
3940;DHT22;1984;48.312;9.244;2024-02-14T08:30:40;12.40;99.90
3940;DHT22;1984;48.312;9.244;2024-02-14T08:33:06;12.30;99.90
3940;DHT22;1984;48.312;9.244;2024-02-14T08:35:31;12.70;99.90
3940;DHT22;1984;48.312;9.244;2024-02-14T08:37:59;13.00;99.90
3940;DHT22;1984;48.312;9.244;2024-02-14T08:40:24;13.90;99.90
3940;DHT22;1984;48.312;9.244;2024-02-14T08:42:50;14.80;99.90
3940;DHT22;1984;48.312;9.244;2024-02-14T08:45:15;15.70;99.90
3940;DHT22;1984;48.312;9.244;2024-02-14T08:47:43;16.20;99.90
3940;DHT22;1984;48.312;9.244;2024-02-14T08:50:09;15.80;99.90
3940;DHT22;1984;48.312;9.244;2024-02-14T08:52:35;15.60;99.90
3940;DHT22;1984;48.312;9.244;2024-02-14T08:55:03;15.70;99.90
3940;DHT22;1984;48.312;9.244;2024-02-14T08:57:29;15.80;99.90
3940;DHT22;1984;48.312;9.244;2024-02-14T08:59:56;15.40;99.90
3940;DHT22;1984;48.312;9.244;2024-02-14T09:02:22;14.70;99.90
3940;DHT22;1984;48.312;9.244;2024-02-14T09:04:48;14.00;99.90
3940;DHT22;1984;48.312;9.244;2024-02-14T09:07:13;13.30;99.90
3940;DHT22;1984;48.312;9.244;2024-02-14T09:09:39;12.80;99.90
3940;DHT22;1984;48.312;9.244;2024-02-14T09:12:05;12.60;99.90
3940;DHT22;1984;48.312;9.244;2024-02-14T09:14:30;12.20;99.90
3940;DHT22;1984;48.312;9.244;2024-02-14T09:16:57;11.80;99.90
3940;DHT22;1984;48.312;9.244;2024-02-14T09:19:23;11.70;99.90
3940;DHT22;1984;48.312;9.244;2024-02-14T09:21:49;11.10;99.90
3940;DHT22;1984;48.312;9.244;2024-02-14T09:24:14;10.70;99.90
3940;DHT22;1984;48.312;9.244;2024-02-14T09:26:40;10.30;99.90
3940;DHT22;1984;48.312;9.244;2024-02-14T09:29:05;9.80;99.90
3940;DHT22;1984;48.312;9.244;2024-02-14T09:31:31;9.60;99.90
3940;DHT22;1984;48.312;9.244;2024-02-14T09:33:57;9.50;99.90
3940;DHT22;1984;48.312;9.244;2024-02-14T09:36:23;9.40;99.90
3940;DHT22;1984;48.312;9.244;2024-02-14T09:38:52;9.30;99.90
3940;DHT22;1984;48.312;9.244;2024-02-14T09:41:25;9.40;99.90
3940;DHT22;1984;48.312;9.244;2024-02-14T09:43:53;9.30;99.90
3940;DHT22;1984;48.312;9.244;2024-02-14T09:46:20;9.30;99.90
3940;DHT22;1984;48.312;9.244;2024-02-14T09:48:50;9.20;99.90
3940;DHT22;1984;48.312;9.244;2024-02-14T09:51:17;9.40;99.90
3940;DHT22;1984;48.312;9.244;2024-02-14T09:53:43;9.50;99.90
3940;DHT22;1984;48.312;9.244;2024-02-14T09:56:10;9.50;99.90
3940;DHT22;1984;48.312;9.244;2024-02-14T09:58:40;9.70;99.90
3940;DHT22;1984;48.312;9.244;2024-02-14T10:01:06;9.60;99.90
3940;DHT22;1984;48.312;9.244;2024-02-14T10:03:32;9.60;99.90
3940;DHT22;1984;48.312;9.244;2024-02-14T10:05:59;9.50;99.90
3940;DHT22;1984;48.312;9.244;2024-02-14T10:08:25;9.60;99.90
3940;DHT22;1984;48.312;9.244;2024-02-14T10:10:51;9.80;99.90
3940;DHT22;1984;48.312;9.244;2024-02-14T10:13:17;9.90;99.90
3940;DHT22;1984;48.312;9.244;2024-02-14T10:15:43;10.60;99.90
3940;DHT22;1984;48.312;9.244;2024-02-14T10:18:08;11.10;99.90
3940;DHT22;1984;48.312;9.244;2024-02-14T10:20:35;11.40;99.90
3940;DHT22;1984;48.312;9.244;2024-02-14T10:23:07;11.40;99.90
3940;DHT22;1984;48.312;9.244;2024-02-14T10:25:36;11.20;99.90
3940;DHT22;1984;48.312;9.244;2024-02-14T10:28:05;11.10;99.90
3940;DHT22;1984;48.312;9.244;2024-02-14T10:30:37;11.10;99.90
3940;DHT22;1984;48.312;9.244;2024-02-14T10:33:06;11.00;99.90
3940;DHT22;1984;48.312;9.244;2024-02-14T10:35:33;10.90;99.90
3940;DHT22;1984;48.312;9.244;2024-02-14T10:38:00;10.80;99.90
3940;DHT22;1984;48.312;9.244;2024-02-14T10:40:32;10.70;99.90
3940;DHT22;1984;48.312;9.244;2024-02-14T10:42:58;10.60;99.90
3940;DHT22;1984;48.312;9.244;2024-02-14T10:45:25;10.50;99.90
3940;DHT22;1984;48.312;9.244;2024-02-14T10:47:52;10.50;99.90
3940;DHT22;1984;48.312;9.244;2024-02-14T10:50:21;10.50;99.90
3940;DHT22;1984;48.312;9.244;2024-02-14T10:52:48;10.60;99.90
3940;DHT22;1984;48.312;9.244;2024-02-14T10:55:16;10.50;99.90
3940;DHT22;1984;48.312;9.244;2024-02-14T10:57:43;10.60;99.90
3940;DHT22;1984;48.312;9.244;2024-02-14T11:00:12;10.50;99.90
3940;DHT22;1984;48.312;9.244;2024-02-14T11:02:40;10.60;99.90
3940;DHT22;1984;48.312;9.244;2024-02-14T11:05:12;10.80;99.90
3940;DHT22;1984;48.312;9.244;2024-02-14T11:07:44;11.00;99.90
3940;DHT22;1984;48.312;9.244;2024-02-14T11:10:13;11.20;99.90
3940;DHT22;1984;48.312;9.244;2024-02-14T11:12:40;11.40;99.90
3940;DHT22;1984;48.312;9.244;2024-02-14T11:15:19;11.70;99.90
3940;DHT22;1984;48.312;9.244;2024-02-14T11:17:46;11.90;99.90
3940;DHT22;1984;48.312;9.244;2024-02-14T11:22:53;12.00;99.90
3940;DHT22;1984;48.312;9.244;2024-02-14T11:25:23;12.00;99.90
3940;DHT22;1984;48.312;9.244;2024-02-14T11:27:50;12.10;99.90
3940;DHT22;1984;48.312;9.244;2024-02-14T11:30:29;12.00;99.90
3940;DHT22;1984;48.312;9.244;2024-02-14T11:35:41;12.10;99.90
3940;DHT22;1984;48.312;9.244;2024-02-14T11:38:08;12.10;99.90
3940;DHT22;1984;48.312;9.244;2024-02-14T11:40:34;12.10;99.90
3940;DHT22;1984;48.312;9.244;2024-02-14T11:42:59;11.90;99.90
3940;DHT22;1984;48.312;9.244;2024-02-14T11:45:25;12.00;99.90
3940;DHT22;1984;48.312;9.244;2024-02-14T11:47:50;12.00;99.90
3940;DHT22;1984;48.312;9.244;2024-02-14T11:50:17;11.90;99.90
3940;DHT22;1984;48.312;9.244;2024-02-14T11:52:44;11.80;99.90
3940;DHT22;1984;48.312;9.244;2024-02-14T11:55:09;11.80;99.90
3940;DHT22;1984;48.312;9.244;2024-02-14T11:57:36;12.00;99.90
3940;DHT22;1984;48.312;9.244;2024-02-14T12:00:01;12.00;99.90
3940;DHT22;1984;48.312;9.244;2024-02-14T12:02:27;12.20;99.90
3940;DHT22;1984;48.312;9.244;2024-02-14T12:04:54;12.20;99.90
3940;DHT22;1984;48.312;9.244;2024-02-14T12:07:21;12.10;99.90
3940;DHT22;1984;48.312;9.244;2024-02-14T12:09:47;12.20;99.90
3940;DHT22;1984;48.312;9.244;2024-02-14T12:12:15;12.20;99.90
3940;DHT22;1984;48.312;9.244;2024-02-14T12:14:43;12.20;99.90
3940;DHT22;1984;48.312;9.244;2024-02-14T12:17:10;12.30;99.90
3940;DHT22;1984;48.312;9.244;2024-02-14T12:19:35;12.50;99.90
3940;DHT22;1984;48.312;9.244;2024-02-14T12:22:11;12.80;99.90
3940;DHT22;1984;48.312;9.244;2024-02-14T12:24:46;13.10;99.90
3940;DHT22;1984;48.312;9.244;2024-02-14T12:27:12;13.50;99.90
3940;DHT22;1984;48.312;9.244;2024-02-14T12:29:38;13.80;99.90
3940;DHT22;1984;48.312;9.244;2024-02-14T12:32:06;13.90;99.90
3940;DHT22;1984;48.312;9.244;2024-02-14T12:34:32;14.10;99.90
3940;DHT22;1984;48.312;9.244;2024-02-14T12:36:59;14.10;99.90
3940;DHT22;1984;48.312;9.244;2024-02-14T12:39:28;13.90;99.90
3940;DHT22;1984;48.312;9.244;2024-02-14T12:41:54;14.00;99.90
3940;DHT22;1984;48.312;9.244;2024-02-14T12:44:20;13.90;99.90
3940;DHT22;1984;48.312;9.244;2024-02-14T12:46:46;13.90;99.90
3940;DHT22;1984;48.312;9.244;2024-02-14T12:49:11;13.90;99.90
3940;DHT22;1984;48.312;9.244;2024-02-14T12:51:37;14.00;99.90
3940;DHT22;1984;48.312;9.244;2024-02-14T12:54:04;13.90;99.90
3940;DHT22;1984;48.312;9.244;2024-02-14T12:56:31;13.70;99.90
3940;DHT22;1984;48.312;9.244;2024-02-14T12:58:57;13.50;99.90
3940;DHT22;1984;48.312;9.244;2024-02-14T13:01:24;13.40;99.90
3940;DHT22;1984;48.312;9.244;2024-02-14T13:03:50;13.40;99.90
3940;DHT22;1984;48.312;9.244;2024-02-14T13:06:16;13.30;99.90
3940;DHT22;1984;48.312;9.244;2024-02-14T13:08:41;13.40;99.90
3940;DHT22;1984;48.312;9.244;2024-02-14T13:11:07;13.50;99.90
3940;DHT22;1984;48.312;9.244;2024-02-14T13:13:34;13.50;99.90
3940;DHT22;1984;48.312;9.244;2024-02-14T13:16:00;13.40;99.90
3940;DHT22;1984;48.312;9.244;2024-02-14T13:18:25;13.20;99.90
3940;DHT22;1984;48.312;9.244;2024-02-14T13:20:51;13.10;99.90
3940;DHT22;1984;48.312;9.244;2024-02-14T13:23:25;13.10;99.90
3940;DHT22;1984;48.312;9.244;2024-02-14T13:25:50;13.20;99.90
3940;DHT22;1984;48.312;9.244;2024-02-14T13:28:16;13.20;99.90
3940;DHT22;1984;48.312;9.244;2024-02-14T13:30:42;13.30;99.90
3940;DHT22;1984;48.312;9.244;2024-02-14T13:33:07;13.30;99.90
3940;DHT22;1984;48.312;9.244;2024-02-14T13:35:37;13.30;99.90
3940;DHT22;1984;48.312;9.244;2024-02-14T13:38:06;13.40;99.90
3940;DHT22;1984;48.312;9.244;2024-02-14T13:40:32;13.40;99.90
3940;DHT22;1984;48.312;9.244;2024-02-14T13:42:58;13.40;99.90
3940;DHT22;1984;48.312;9.244;2024-02-14T13:45:24;13.40;99.90
3940;DHT22;1984;48.312;9.244;2024-02-14T13:47:50;13.20;99.90
3940;DHT22;1984;48.312;9.244;2024-02-14T13:50:16;13.00;99.90
3940;DHT22;1984;48.312;9.244;2024-02-14T13:52:42;12.90;99.90
3940;DHT22;1984;48.312;9.244;2024-02-14T13:55:07;12.80;99.90
3940;DHT22;1984;48.312;9.244;2024-02-14T13:57:37;12.80;99.90
3940;DHT22;1984;48.312;9.244;2024-02-14T14:00:08;13.00;99.90
3940;DHT22;1984;48.312;9.244;2024-02-14T14:02:37;13.10;99.90
3940;DHT22;1984;48.312;9.244;2024-02-14T14:05:07;13.10;99.90
3940;DHT22;1984;48.312;9.244;2024-02-14T14:07:35;13.10;99.90
3940;DHT22;1984;48.312;9.244;2024-02-14T14:10:05;12.90;99.90
3940;DHT22;1984;48.312;9.244;2024-02-14T14:12:31;12.80;99.90
3940;DHT22;1984;48.312;9.244;2024-02-14T14:14:57;12.80;99.90
3940;DHT22;1984;48.312;9.244;2024-02-14T14:17:23;12.80;99.90
3940;DHT22;1984;48.312;9.244;2024-02-14T14:19:48;12.80;99.90
3940;DHT22;1984;48.312;9.244;2024-02-14T14:22:14;12.70;99.90
3940;DHT22;1984;48.312;9.244;2024-02-14T14:24:40;12.70;99.90
3940;DHT22;1984;48.312;9.244;2024-02-14T14:27:05;12.60;99.90
3940;DHT22;1984;48.312;9.244;2024-02-14T14:29:34;12.60;99.90
3940;DHT22;1984;48.312;9.244;2024-02-14T14:32:01;12.50;99.90
3940;DHT22;1984;48.312;9.244;2024-02-14T14:34:27;12.40;99.90
3940;DHT22;1984;48.312;9.244;2024-02-14T14:36:55;12.30;99.90
3940;DHT22;1984;48.312;9.244;2024-02-14T14:39:21;12.30;99.90
3940;DHT22;1984;48.312;9.244;2024-02-14T14:41:46;12.30;99.90
3940;DHT22;1984;48.312;9.244;2024-02-14T14:44:12;12.20;99.90
3940;DHT22;1984;48.312;9.244;2024-02-14T14:46:38;12.20;99.90
3940;DHT22;1984;48.312;9.244;2024-02-14T14:49:08;12.20;99.90
3940;DHT22;1984;48.312;9.244;2024-02-14T14:51:35;12.30;99.90
3940;DHT22;1984;48.312;9.244;2024-02-14T14:54:01;12.20;99.90
3940;DHT22;1984;48.312;9.244;2024-02-14T14:56:27;12.10;99.90
3940;DHT22;1984;48.312;9.244;2024-02-14T14:58:52;12.00;99.90
3940;DHT22;1984;48.312;9.244;2024-02-14T15:01:18;11.90;99.90
3940;DHT22;1984;48.312;9.244;2024-02-14T15:03:44;11.90;99.90
3940;DHT22;1984;48.312;9.244;2024-02-14T15:06:10;11.80;99.90
3940;DHT22;1984;48.312;9.244;2024-02-14T15:08:36;11.80;99.90
3940;DHT22;1984;48.312;9.244;2024-02-14T15:11:02;11.80;99.90
3940;DHT22;1984;48.312;9.244;2024-02-14T15:13:30;11.90;99.90
3940;DHT22;1984;48.312;9.244;2024-02-14T15:15:57;11.90;99.90
3940;DHT22;1984;48.312;9.244;2024-02-14T15:18:24;11.90;99.90
3940;DHT22;1984;48.312;9.244;2024-02-14T15:20:49;11.90;99.90
3940;DHT22;1984;48.312;9.244;2024-02-14T15:23:15;11.90;99.90
3940;DHT22;1984;48.312;9.244;2024-02-14T15:25:40;11.90;99.90
3940;DHT22;1984;48.312;9.244;2024-02-14T15:28:10;11.90;99.90
3940;DHT22;1984;48.312;9.244;2024-02-14T15:30:46;11.90;99.90
3940;DHT22;1984;48.312;9.244;2024-02-14T15:33:30;12.00;99.90
3940;DHT22;1984;48.312;9.244;2024-02-14T15:35:57;11.90;99.90
3940;DHT22;1984;48.312;9.244;2024-02-14T15:38:23;12.00;99.90
3940;DHT22;1984;48.312;9.244;2024-02-14T15:40:51;12.00;99.90
3940;DHT22;1984;48.312;9.244;2024-02-14T15:43:20;12.00;99.90
3940;DHT22;1984;48.312;9.244;2024-02-14T15:45:47;12.00;99.90
3940;DHT22;1984;48.312;9.244;2024-02-14T15:48:13;11.90;99.90
3940;DHT22;1984;48.312;9.244;2024-02-14T15:50:41;11.90;99.90
3940;DHT22;1984;48.312;9.244;2024-02-14T15:53:08;11.90;99.90
3940;DHT22;1984;48.312;9.244;2024-02-14T15:55:34;11.90;99.90
3940;DHT22;1984;48.312;9.244;2024-02-14T15:58:00;11.80;99.90
3940;DHT22;1984;48.312;9.244;2024-02-14T16:00:27;11.70;99.90
3940;DHT22;1984;48.312;9.244;2024-02-14T16:02:55;11.60;99.90
3940;DHT22;1984;48.312;9.244;2024-02-14T16:05:20;11.50;99.90
3940;DHT22;1984;48.312;9.244;2024-02-14T16:07:47;11.50;99.90
3940;DHT22;1984;48.312;9.244;2024-02-14T16:10:12;11.50;99.90